sensor_id;sensor_type;location;lat;lon;timestamp;temperature;humidity
2993;DHT22;1506;48.932;9.478;2024-02-21T00:01:32;5.60;99.90
2993;DHT22;1506;48.932;9.478;2024-02-21T00:03:59;5.60;99.90
2993;DHT22;1506;48.932;9.478;2024-02-21T00:06:26;5.60;99.90
2993;DHT22;1506;48.932;9.478;2024-02-21T00:08:54;5.50;99.90
2993;DHT22;1506;48.932;9.478;2024-02-21T00:11:21;5.70;99.90
2993;DHT22;1506;48.932;9.478;2024-02-21T00:13:48;5.70;99.90
2993;DHT22;1506;48.932;9.478;2024-02-21T00:16:17;5.60;99.90
2993;DHT22;1506;48.932;9.478;2024-02-21T00:18:45;5.80;99.90
2993;DHT22;1506;48.932;9.478;2024-02-21T00:21:12;5.90;99.90
2993;DHT22;1506;48.932;9.478;2024-02-21T00:23:44;5.80;99.90
2993;DHT22;1506;48.932;9.478;2024-02-21T00:26:15;5.80;99.90
2993;DHT22;1506;48.932;9.478;2024-02-21T00:28:42;6.00;99.90
2993;DHT22;1506;48.932;9.478;2024-02-21T00:31:10;5.80;99.90
2993;DHT22;1506;48.932;9.478;2024-02-21T00:33:37;5.80;99.90
2993;DHT22;1506;48.932;9.478;2024-02-21T00:36:04;5.60;99.90
2993;DHT22;1506;48.932;9.478;2024-02-21T00:38:32;5.30;99.90
2993;DHT22;1506;48.932;9.478;2024-02-21T00:40:59;5.30;99.90
2993;DHT22;1506;48.932;9.478;2024-02-21T00:43:26;5.20;99.90
2993;DHT22;1506;48.932;9.478;2024-02-21T00:45:53;5.30;99.90
2993;DHT22;1506;48.932;9.478;2024-02-21T00:48:20;5.30;99.90
2993;DHT22;1506;48.932;9.478;2024-02-21T00:50:47;5.50;99.90
2993;DHT22;1506;48.932;9.478;2024-02-21T00:53:14;5.70;99.90
2993;DHT22;1506;48.932;9.478;2024-02-21T00:55:41;5.70;99.90
2993;DHT22;1506;48.932;9.478;2024-02-21T00:58:10;5.80;99.90
2993;DHT22;1506;48.932;9.478;2024-02-21T01:00:37;5.80;99.90
2993;DHT22;1506;48.932;9.478;2024-02-21T01:03:04;5.80;99.90
2993;DHT22;1506;48.932;9.478;2024-02-21T01:05:31;5.70;99.90
2993;DHT22;1506;48.932;9.478;2024-02-21T01:07:58;5.80;99.90
2993;DHT22;1506;48.932;9.478;2024-02-21T01:10:25;5.80;99.90
2993;DHT22;1506;48.932;9.478;2024-02-21T01:12:52;6.10;99.90
2993;DHT22;1506;48.932;9.478;2024-02-21T01:15:19;5.90;99.90
2993;DHT22;1506;48.932;9.478;2024-02-21T01:17:46;5.90;99.90
2993;DHT22;1506;48.932;9.478;2024-02-21T01:20:14;5.80;99.90
2993;DHT22;1506;48.932;9.478;2024-02-21T01:22:41;5.90;99.90
2993;DHT22;1506;48.932;9.478;2024-02-21T01:25:08;5.90;99.90
2993;DHT22;1506;48.932;9.478;2024-02-21T01:27:35;5.80;99.90
2993;DHT22;1506;48.932;9.478;2024-02-21T01:30:02;5.80;99.90
2993;DHT22;1506;48.932;9.478;2024-02-21T01:32:29;6.00;99.90
2993;DHT22;1506;48.932;9.478;2024-02-21T01:34:56;6.10;99.90
2993;DHT22;1506;48.932;9.478;2024-02-21T01:37:23;6.10;99.90
2993;DHT22;1506;48.932;9.478;2024-02-21T01:39:50;6.10;99.90
2993;DHT22;1506;48.932;9.478;2024-02-21T01:42:17;6.00;99.90
2993;DHT22;1506;48.932;9.478;2024-02-21T01:44:44;6.00;99.90
2993;DHT22;1506;48.932;9.478;2024-02-21T01:47:11;6.00;99.90
2993;DHT22;1506;48.932;9.478;2024-02-21T01:49:40;6.40;99.90
2993;DHT22;1506;48.932;9.478;2024-02-21T01:52:08;6.10;99.90
2993;DHT22;1506;48.932;9.478;2024-02-21T01:54:35;6.00;99.90
2993;DHT22;1506;48.932;9.478;2024-02-21T01:57:03;6.00;99.90
2993;DHT22;1506;48.932;9.478;2024-02-21T01:59:30;5.80;99.90
2993;DHT22;1506;48.932;9.478;2024-02-21T02:01:57;5.90;99.90
2993;DHT22;1506;48.932;9.478;2024-02-21T02:04:27;6.10;99.90
2993;DHT22;1506;48.932;9.478;2024-02-21T02:06:54;6.00;99.90
2993;DHT22;1506;48.932;9.478;2024-02-21T02:09:22;5.80;99.90
2993;DHT22;1506;48.932;9.478;2024-02-21T02:11:49;6.00;99.90
2993;DHT22;1506;48.932;9.478;2024-02-21T02:14:16;6.30;99.90
2993;DHT22;1506;48.932;9.478;2024-02-21T02:16:45;6.20;99.90
2993;DHT22;1506;48.932;9.478;2024-02-21T02:19:14;6.30;99.90
2993;DHT22;1506;48.932;9.478;2024-02-21T02:21:45;6.40;99.90
2993;DHT22;1506;48.932;9.478;2024-02-21T02:24:13;6.40;99.90
2993;DHT22;1506;48.932;9.478;2024-02-21T02:26:41;6.60;39.80
2993;DHT22;1506;48.932;9.478;2024-02-21T02:29:08;6.70;1.00
2993;DHT22;1506;48.932;9.478;2024-02-21T02:31:35;6.60;1.00
2993;DHT22;1506;48.932;9.478;2024-02-21T02:34:02;6.50;1.00
2993;DHT22;1506;48.932;9.478;2024-02-21T02:36:31;6.50;13.80
2993;DHT22;1506;48.932;9.478;2024-02-21T02:38:59;6.50;1.00
2993;DHT22;1506;48.932;9.478;2024-02-21T02:41:26;6.60;1.00
2993;DHT22;1506;48.932;9.478;2024-02-21T02:43:53;6.80;1.00
2993;DHT22;1506;48.932;9.478;2024-02-21T02:46:20;6.90;1.00
2993;DHT22;1506;48.932;9.478;2024-02-21T02:48:47;6.60;3.10
2993;DHT22;1506;48.932;9.478;2024-02-21T02:51:14;7.00;9.10
2993;DHT22;1506;48.932;9.478;2024-02-21T02:53:41;6.90;6.40
2993;DHT22;1506;48.932;9.478;2024-02-21T02:56:13;6.80;1.00
2993;DHT22;1506;48.932;9.478;2024-02-21T02:58:42;6.80;1.00
2993;DHT22;1506;48.932;9.478;2024-02-21T03:01:09;6.90;1.00
2993;DHT22;1506;48.932;9.478;2024-02-21T03:03:37;6.90;1.00
2993;DHT22;1506;48.932;9.478;2024-02-21T03:06:04;7.00;1.00
2993;DHT22;1506;48.932;9.478;2024-02-21T03:08:32;6.90;1.00
2993;DHT22;1506;48.932;9.478;2024-02-21T03:10:59;6.70;1.00
2993;DHT22;1506;48.932;9.478;2024-02-21T03:13:27;6.60;1.00
2993;DHT22;1506;48.932;9.478;2024-02-21T03:15:54;6.60;1.00
2993;DHT22;1506;48.932;9.478;2024-02-21T03:18:21;6.60;36.40
2993;DHT22;1506;48.932;9.478;2024-02-21T03:20:48;6.40;75.80
2993;DHT22;1506;48.932;9.478;2024-02-21T03:23:15;6.40;99.90
2993;DHT22;1506;48.932;9.478;2024-02-21T03:25:42;6.30;99.90
2993;DHT22;1506;48.932;9.478;2024-02-21T03:28:09;6.30;99.90
2993;DHT22;1506;48.932;9.478;2024-02-21T03:30:36;6.40;99.90
2993;DHT22;1506;48.932;9.478;2024-02-21T03:33:03;6.40;99.90
2993;DHT22;1506;48.932;9.478;2024-02-21T03:35:30;6.30;99.90
2993;DHT22;1506;48.932;9.478;2024-02-21T03:37:57;6.60;99.90
2993;DHT22;1506;48.932;9.478;2024-02-21T03:40:25;6.30;99.90
2993;DHT22;1506;48.932;9.478;2024-02-21T03:42:52;6.10;99.90
2993;DHT22;1506;48.932;9.478;2024-02-21T03:45:19;6.10;99.90
2993;DHT22;1506;48.932;9.478;2024-02-21T03:47:46;5.60;99.90
2993;DHT22;1506;48.932;9.478;2024-02-21T03:50:13;5.70;99.90
2993;DHT22;1506;48.932;9.478;2024-02-21T03:52:40;5.40;99.90
2993;DHT22;1506;48.932;9.478;2024-02-21T03:55:08;5.40;99.90
2993;DHT22;1506;48.932;9.478;2024-02-21T03:57:35;5.30;99.90
2993;DHT22;1506;48.932;9.478;2024-02-21T04:00:02;5.40;99.90
2993;DHT22;1506;48.932;9.478;2024-02-21T04:02:33;5.50;99.90
2993;DHT22;1506;48.932;9.478;2024-02-21T04:05:00;5.40;99.90
2993;DHT22;1506;48.932;9.478;2024-02-21T04:07:27;5.30;99.90
2993;DHT22;1506;48.932;9.478;2024-02-21T04:09:54;5.10;99.90
2993;DHT22;1506;48.932;9.478;2024-02-21T04:12:21;5.30;99.90
2993;DHT22;1506;48.932;9.478;2024-02-21T04:14:48;5.10;99.90
2993;DHT22;1506;48.932;9.478;2024-02-21T04:17:15;5.10;99.90
2993;DHT22;1506;48.932;9.478;2024-02-21T04:19:42;5.10;99.90
2993;DHT22;1506;48.932;9.478;2024-02-21T04:22:09;5.40;99.90
2993;DHT22;1506;48.932;9.478;2024-02-21T04:24:36;5.40;99.90
2993;DHT22;1506;48.932;9.478;2024-02-21T04:27:03;5.40;99.90
2993;DHT22;1506;48.932;9.478;2024-02-21T04:29:31;5.60;99.90
2993;DHT22;1506;48.932;9.478;2024-02-21T04:32:01;5.50;99.90
2993;DHT22;1506;48.932;9.478;2024-02-21T04:34:29;5.20;99.90
2993;DHT22;1506;48.932;9.478;2024-02-21T04:36:56;5.00;99.90
2993;DHT22;1506;48.932;9.478;2024-02-21T04:39:23;5.00;99.90
2993;DHT22;1506;48.932;9.478;2024-02-21T04:41:50;5.10;99.90
2993;DHT22;1506;48.932;9.478;2024-02-21T04:44:17;5.20;99.90
2993;DHT22;1506;48.932;9.478;2024-02-21T04:46:48;5.20;99.90
2993;DHT22;1506;48.932;9.478;2024-02-21T04:49:15;5.10;99.90
2993;DHT22;1506;48.932;9.478;2024-02-21T04:51:43;5.10;99.90
2993;DHT22;1506;48.932;9.478;2024-02-21T04:54:10;5.10;99.90
2993;DHT22;1506;48.932;9.478;2024-02-21T04:56:37;5.20;99.90
2993;DHT22;1506;48.932;9.478;2024-02-21T04:59:06;5.30;99.90
2993;DHT22;1506;48.932;9.478;2024-02-21T05:01:33;5.30;99.90
2993;DHT22;1506;48.932;9.478;2024-02-21T05:04:00;5.20;99.90
2993;DHT22;1506;48.932;9.478;2024-02-21T05:06:27;5.20;99.90
2993;DHT22;1506;48.932;9.478;2024-02-21T05:08:55;5.50;99.90
2993;DHT22;1506;48.932;9.478;2024-02-21T05:11:22;5.20;99.90
2993;DHT22;1506;48.932;9.478;2024-02-21T05:13:49;5.00;99.90
2993;DHT22;1506;48.932;9.478;2024-02-21T05:16:17;5.10;99.90
2993;DHT22;1506;48.932;9.478;2024-02-21T05:18:46;5.00;99.90
2993;DHT22;1506;48.932;9.478;2024-02-21T05:21:13;4.90;99.90
2993;DHT22;1506;48.932;9.478;2024-02-21T05:23:40;4.70;99.90
2993;DHT22;1506;48.932;9.478;2024-02-21T05:26:07;4.60;99.90
2993;DHT22;1506;48.932;9.478;2024-02-21T05:28:34;4.60;99.90
2993;DHT22;1506;48.932;9.478;2024-02-21T05:31:02;4.30;99.90
2993;DHT22;1506;48.932;9.478;2024-02-21T05:33:29;4.20;99.90
2993;DHT22;1506;48.932;9.478;2024-02-21T05:35:56;4.20;99.90
2993;DHT22;1506;48.932;9.478;2024-02-21T05:38:23;4.10;99.90
2993;DHT22;1506;48.932;9.478;2024-02-21T05:40:50;4.00;99.90
2993;DHT22;1506;48.932;9.478;2024-02-21T05:43:17;4.10;99.90
2993;DHT22;1506;48.932;9.478;2024-02-21T05:45:44;4.00;99.90
2993;DHT22;1506;48.932;9.478;2024-02-21T05:48:11;4.00;99.90
2993;DHT22;1506;48.932;9.478;2024-02-21T05:50:39;4.00;99.90
2993;DHT22;1506;48.932;9.478;2024-02-21T05:53:06;4.00;99.90
2993;DHT22;1506;48.932;9.478;2024-02-21T05:55:33;4.10;99.90
2993;DHT22;1506;48.932;9.478;2024-02-21T05:58:01;4.20;99.90
2993;DHT22;1506;48.932;9.478;2024-02-21T06:00:29;3.90;99.90
2993;DHT22;1506;48.932;9.478;2024-02-21T06:02:56;4.00;99.90
2993;DHT22;1506;48.932;9.478;2024-02-21T06:05:23;4.00;99.90
2993;DHT22;1506;48.932;9.478;2024-02-21T06:07:50;4.00;99.90
2993;DHT22;1506;48.932;9.478;2024-02-21T06:10:17;4.00;99.90
2993;DHT22;1506;48.932;9.478;2024-02-21T06:12:45;4.10;99.90
2993;DHT22;1506;48.932;9.478;2024-02-21T06:15:12;3.80;99.90
2993;DHT22;1506;48.932;9.478;2024-02-21T06:17:39;3.70;99.90
2993;DHT22;1506;48.932;9.478;2024-02-21T06:20:06;4.00;99.90
2993;DHT22;1506;48.932;9.478;2024-02-21T06:22:33;3.80;99.90
2993;DHT22;1506;48.932;9.478;2024-02-21T06:25:01;3.80;99.90
2993;DHT22;1506;48.932;9.478;2024-02-21T06:27:28;3.80;99.90
2993;DHT22;1506;48.932;9.478;2024-02-21T06:29:55;3.90;99.90
2993;DHT22;1506;48.932;9.478;2024-02-21T06:32:22;4.20;99.90
2993;DHT22;1506;48.932;9.478;2024-02-21T06:34:49;3.90;99.90
2993;DHT22;1506;48.932;9.478;2024-02-21T06:37:17;3.90;99.90
2993;DHT22;1506;48.932;9.478;2024-02-21T06:39:44;3.80;99.90
2993;DHT22;1506;48.932;9.478;2024-02-21T06:42:11;3.80;99.90
2993;DHT22;1506;48.932;9.478;2024-02-21T06:44:38;3.70;99.90
2993;DHT22;1506;48.932;9.478;2024-02-21T06:47:07;3.70;99.90
2993;DHT22;1506;48.932;9.478;2024-02-21T06:49:35;3.80;99.90
2993;DHT22;1506;48.932;9.478;2024-02-21T06:52:04;4.00;99.90
2993;DHT22;1506;48.932;9.478;2024-02-21T06:54:31;4.00;99.90
2993;DHT22;1506;48.932;9.478;2024-02-21T06:56:58;4.00;99.90
2993;DHT22;1506;48.932;9.478;2024-02-21T06:59:25;4.00;99.90
2993;DHT22;1506;48.932;9.478;2024-02-21T07:01:53;4.10;99.90
2993;DHT22;1506;48.932;9.478;2024-02-21T07:04:22;4.10;99.90
2993;DHT22;1506;48.932;9.478;2024-02-21T07:06:49;4.10;99.90
2993;DHT22;1506;48.932;9.478;2024-02-21T07:09:16;4.10;99.90
2993;DHT22;1506;48.932;9.478;2024-02-21T07:11:43;4.20;99.90
2993;DHT22;1506;48.932;9.478;2024-02-21T07:14:10;4.30;99.90
2993;DHT22;1506;48.932;9.478;2024-02-21T07:16:37;4.40;99.90
2993;DHT22;1506;48.932;9.478;2024-02-21T07:19:05;4.80;99.90
2993;DHT22;1506;48.932;9.478;2024-02-21T07:21:32;4.80;99.90
2993;DHT22;1506;48.932;9.478;2024-02-21T07:24:00;4.80;99.90
2993;DHT22;1506;48.932;9.478;2024-02-21T07:26:27;4.80;99.90
2993;DHT22;1506;48.932;9.478;2024-02-21T07:28:54;4.90;99.90
2993;DHT22;1506;48.932;9.478;2024-02-21T07:31:21;4.90;99.90
2993;DHT22;1506;48.932;9.478;2024-02-21T07:33:48;5.20;99.90
2993;DHT22;1506;48.932;9.478;2024-02-21T07:36:15;5.50;99.90
2993;DHT22;1506;48.932;9.478;2024-02-21T07:38:43;5.40;99.90
2993;DHT22;1506;48.932;9.478;2024-02-21T07:41:11;5.60;99.90
2993;DHT22;1506;48.932;9.478;2024-02-21T07:43:38;6.00;99.90
2993;DHT22;1506;48.932;9.478;2024-02-21T07:46:05;6.00;99.90
2993;DHT22;1506;48.932;9.478;2024-02-21T07:48:32;6.30;99.90
2993;DHT22;1506;48.932;9.478;2024-02-21T07:51:01;6.50;99.90
2993;DHT22;1506;48.932;9.478;2024-02-21T07:53:28;6.80;99.90
2993;DHT22;1506;48.932;9.478;2024-02-21T07:55:55;7.40;99.90
2993;DHT22;1506;48.932;9.478;2024-02-21T07:58:22;7.50;99.90
2993;DHT22;1506;48.932;9.478;2024-02-21T08:00:49;7.70;99.90
2993;DHT22;1506;48.932;9.478;2024-02-21T08:03:16;8.20;99.90
2993;DHT22;1506;48.932;9.478;2024-02-21T08:05:44;8.40;1.00
2993;DHT22;1506;48.932;9.478;2024-02-21T08:08:12;8.50;1.00
2993;DHT22;1506;48.932;9.478;2024-02-21T08:10:45;8.60;1.00
2993;DHT22;1506;48.932;9.478;2024-02-21T08:13:12;9.00;99.90
2993;DHT22;1506;48.932;9.478;2024-02-21T08:15:39;9.40;1.00
2993;DHT22;1506;48.932;9.478;2024-02-21T08:18:08;9.90;1.00
2993;DHT22;1506;48.932;9.478;2024-02-21T08:20:36;10.40;1.00
2993;DHT22;1506;48.932;9.478;2024-02-21T08:23:03;10.50;1.00
2993;DHT22;1506;48.932;9.478;2024-02-21T08:25:30;10.30;99.90
2993;DHT22;1506;48.932;9.478;2024-02-21T08:27:58;10.50;1.00
2993;DHT22;1506;48.932;9.478;2024-02-21T08:30:26;10.40;1.00
2993;DHT22;1506;48.932;9.478;2024-02-21T08:32:53;10.30;1.00
2993;DHT22;1506;48.932;9.478;2024-02-21T08:35:21;10.10;1.00
2993;DHT22;1506;48.932;9.478;2024-02-21T08:37:51;10.30;1.00
2993;DHT22;1506;48.932;9.478;2024-02-21T08:40:18;10.50;1.00
2993;DHT22;1506;48.932;9.478;2024-02-21T08:42:48;10.70;99.90
2993;DHT22;1506;48.932;9.478;2024-02-21T08:45:16;10.80;54.10
2993;DHT22;1506;48.932;9.478;2024-02-21T08:47:43;10.60;99.90
2993;DHT22;1506;48.932;9.478;2024-02-21T08:50:11;10.20;99.90
2993;DHT22;1506;48.932;9.478;2024-02-21T08:52:53;10.30;99.90
2993;DHT22;1506;48.932;9.478;2024-02-21T08:55:21;10.40;99.90
2993;DHT22;1506;48.932;9.478;2024-02-21T08:57:48;10.30;99.90
2993;DHT22;1506;48.932;9.478;2024-02-21T09:00:15;10.00;99.90
2993;DHT22;1506;48.932;9.478;2024-02-21T09:02:42;10.00;99.90
2993;DHT22;1506;48.932;9.478;2024-02-21T09:05:10;10.10;99.90
2993;DHT22;1506;48.932;9.478;2024-02-21T09:07:38;10.00;99.90
2993;DHT22;1506;48.932;9.478;2024-02-21T09:10:05;10.10;99.90
2993;DHT22;1506;48.932;9.478;2024-02-21T09:12:33;9.70;1.00
2993;DHT22;1506;48.932;9.478;2024-02-21T09:15:00;9.80;99.90
2993;DHT22;1506;48.932;9.478;2024-02-21T09:17:27;9.90;99.90
2993;DHT22;1506;48.932;9.478;2024-02-21T09:19:56;9.90;99.90
2993;DHT22;1506;48.932;9.478;2024-02-21T09:22:26;10.10;99.90
2993;DHT22;1506;48.932;9.478;2024-02-21T09:24:54;10.00;99.90
2993;DHT22;1506;48.932;9.478;2024-02-21T09:27:21;10.10;54.60
2993;DHT22;1506;48.932;9.478;2024-02-21T09:29:49;10.30;99.90
2993;DHT22;1506;48.932;9.478;2024-02-21T09:32:16;10.60;99.90
2993;DHT22;1506;48.932;9.478;2024-02-21T09:34:44;11.00;99.90
2993;DHT22;1506;48.932;9.478;2024-02-21T09:37:12;11.10;99.90
2993;DHT22;1506;48.932;9.478;2024-02-21T09:39:40;11.10;99.90
2993;DHT22;1506;48.932;9.478;2024-02-21T09:42:07;11.20;99.90
2993;DHT22;1506;48.932;9.478;2024-02-21T09:44:38;11.50;99.90
2993;DHT22;1506;48.932;9.478;2024-02-21T09:47:06;11.70;91.20
2993;DHT22;1506;48.932;9.478;2024-02-21T09:49:38;11.90;19.80
2993;DHT22;1506;48.932;9.478;2024-02-21T09:52:08;12.00;1.00
2993;DHT22;1506;48.932;9.478;2024-02-21T09:54:35;12.10;1.00
2993;DHT22;1506;48.932;9.478;2024-02-21T09:57:03;12.00;1.00
2993;DHT22;1506;48.932;9.478;2024-02-21T09:59:32;12.20;1.00
2993;DHT22;1506;48.932;9.478;2024-02-21T10:01:59;12.50;99.90
2993;DHT22;1506;48.932;9.478;2024-02-21T10:04:30;12.60;1.00
2993;DHT22;1506;48.932;9.478;2024-02-21T10:06:57;12.90;99.90
2993;DHT22;1506;48.932;9.478;2024-02-21T10:09:25;13.20;99.90
2993;DHT22;1506;48.932;9.478;2024-02-21T10:12:10;13.20;99.90
2993;DHT22;1506;48.932;9.478;2024-02-21T10:14:39;13.10;99.90
2993;DHT22;1506;48.932;9.478;2024-02-21T10:17:06;12.20;99.90
2993;DHT22;1506;48.932;9.478;2024-02-21T10:19:37;12.60;99.90
2993;DHT22;1506;48.932;9.478;2024-02-21T10:22:07;13.40;99.90
2993;DHT22;1506;48.932;9.478;2024-02-21T10:24:35;14.00;99.90
2993;DHT22;1506;48.932;9.478;2024-02-21T10:27:05;14.40;99.90
2993;DHT22;1506;48.932;9.478;2024-02-21T10:29:35;14.50;99.90
2993;DHT22;1506;48.932;9.478;2024-02-21T10:32:09;14.70;99.90
2993;DHT22;1506;48.932;9.478;2024-02-21T10:34:41;14.60;99.90
2993;DHT22;1506;48.932;9.478;2024-02-21T10:37:09;14.80;99.90
2993;DHT22;1506;48.932;9.478;2024-02-21T10:39:40;15.10;99.90
2993;DHT22;1506;48.932;9.478;2024-02-21T10:42:10;15.20;99.90
2993;DHT22;1506;48.932;9.478;2024-02-21T10:44:38;15.00;99.90
2993;DHT22;1506;48.932;9.478;2024-02-21T10:47:07;14.70;99.90
2993;DHT22;1506;48.932;9.478;2024-02-21T10:49:39;14.60;99.90
2993;DHT22;1506;48.932;9.478;2024-02-21T10:52:15;14.30;99.90
2993;DHT22;1506;48.932;9.478;2024-02-21T10:57:24;13.50;99.90
2993;DHT22;1506;48.932;9.478;2024-02-21T10:59:52;13.60;99.90
2993;DHT22;1506;48.932;9.478;2024-02-21T11:02:20;13.90;99.90
2993;DHT22;1506;48.932;9.478;2024-02-21T11:04:48;13.80;99.90
2993;DHT22;1506;48.932;9.478;2024-02-21T11:07:17;14.10;99.90
2993;DHT22;1506;48.932;9.478;2024-02-21T11:09:50;13.80;99.90
2993;DHT22;1506;48.932;9.478;2024-02-21T11:12:20;13.60;95.10
2993;DHT22;1506;48.932;9.478;2024-02-21T11:14:48;13.40;99.90
2993;DHT22;1506;48.932;9.478;2024-02-21T11:17:15;13.60;99.90
2993;DHT22;1506;48.932;9.478;2024-02-21T11:19:46;13.80;99.90
2993;DHT22;1506;48.932;9.478;2024-02-21T11:22:18;14.00;99.90
2993;DHT22;1506;48.932;9.478;2024-02-21T11:24:46;14.20;95.50
2993;DHT22;1506;48.932;9.478;2024-02-21T11:27:20;14.30;99.90
2993;DHT22;1506;48.932;9.478;2024-02-21T11:29:48;14.50;95.30
2993;DHT22;1506;48.932;9.478;2024-02-21T11:32:19;14.70;93.60
2993;DHT22;1506;48.932;9.478;2024-02-21T11:37:29;14.60;76.10
2993;DHT22;1506;48.932;9.478;2024-02-21T11:40:01;13.90;30.10
2993;DHT22;1506;48.932;9.478;2024-02-21T11:42:29;13.80;43.50
2993;DHT22;1506;48.932;9.478;2024-02-21T11:44:59;13.90;41.70
2993;DHT22;1506;48.932;9.478;2024-02-21T11:47:28;13.20;21.50
2993;DHT22;1506;48.932;9.478;2024-02-21T11:49:56;12.60;26.10
2993;DHT22;1506;48.932;9.478;2024-02-21T11:52:24;12.50;55.00
2993;DHT22;1506;48.932;9.478;2024-02-21T11:54:53;12.90;89.30
2993;DHT22;1506;48.932;9.478;2024-02-21T11:57:23;13.50;96.80
2993;DHT22;1506;48.932;9.478;2024-02-21T11:59:50;13.70;77.10
2993;DHT22;1506;48.932;9.478;2024-02-21T12:02:26;13.90;75.10
2993;DHT22;1506;48.932;9.478;2024-02-21T12:04:53;13.60;19.50
2993;DHT22;1506;48.932;9.478;2024-02-21T12:07:21;13.20;16.80
2993;DHT22;1506;48.932;9.478;2024-02-21T12:09:51;13.10;29.60
2993;DHT22;1506;48.932;9.478;2024-02-21T12:12:19;13.80;42.90
2993;DHT22;1506;48.932;9.478;2024-02-21T12:14:53;13.90;52.60
2993;DHT22;1506;48.932;9.478;2024-02-21T12:17:21;14.30;56.90
2993;DHT22;1506;48.932;9.478;2024-02-21T12:19:50;14.50;42.40
2993;DHT22;1506;48.932;9.478;2024-02-21T12:22:20;14.40;1.00
2993;DHT22;1506;48.932;9.478;2024-02-21T12:24:47;13.60;1.00
2993;DHT22;1506;48.932;9.478;2024-02-21T12:27:15;13.80;2.70
2993;DHT22;1506;48.932;9.478;2024-02-21T12:29:42;14.10;7.00
2993;DHT22;1506;48.932;9.478;2024-02-21T12:32:09;14.30;10.60
2993;DHT22;1506;48.932;9.478;2024-02-21T12:34:37;14.50;7.90
2993;DHT22;1506;48.932;9.478;2024-02-21T12:37:21;14.60;1.00
2993;DHT22;1506;48.932;9.478;2024-02-21T12:39:49;14.50;1.00
2993;DHT22;1506;48.932;9.478;2024-02-21T12:42:16;14.40;1.00
2993;DHT22;1506;48.932;9.478;2024-02-21T12:44:44;14.30;1.00
2993;DHT22;1506;48.932;9.478;2024-02-21T12:47:11;14.40;1.00
2993;DHT22;1506;48.932;9.478;2024-02-21T12:49:38;14.40;1.00
2993;DHT22;1506;48.932;9.478;2024-02-21T12:52:11;14.20;1.00
2993;DHT22;1506;48.932;9.478;2024-02-21T12:54:38;14.30;1.00
2993;DHT22;1506;48.932;9.478;2024-02-21T12:57:05;14.30;1.00
2993;DHT22;1506;48.932;9.478;2024-02-21T12:59:32;14.30;1.00
2993;DHT22;1506;48.932;9.478;2024-02-21T13:01:59;14.50;1.00
2993;DHT22;1506;48.932;9.478;2024-02-21T13:04:27;14.50;1.00
2993;DHT22;1506;48.932;9.478;2024-02-21T13:06:54;14.20;1.00
2993;DHT22;1506;48.932;9.478;2024-02-21T13:09:22;13.50;1.00
2993;DHT22;1506;48.932;9.478;2024-02-21T13:11:49;13.10;1.00
2993;DHT22;1506;48.932;9.478;2024-02-21T13:14:18;13.30;1.00
2993;DHT22;1506;48.932;9.478;2024-02-21T13:16:45;13.60;1.00
2993;DHT22;1506;48.932;9.478;2024-02-21T13:19:12;13.70;1.00
2993;DHT22;1506;48.932;9.478;2024-02-21T13:21:44;13.80;1.00
2993;DHT22;1506;48.932;9.478;2024-02-21T13:24:11;14.00;1.00
2993;DHT22;1506;48.932;9.478;2024-02-21T13:26:38;13.80;1.00
2993;DHT22;1506;48.932;9.478;2024-02-21T13:29:05;13.50;1.00
2993;DHT22;1506;48.932;9.478;2024-02-21T13:31:32;13.60;1.00
2993;DHT22;1506;48.932;9.478;2024-02-21T13:34:00;13.80;1.00
2993;DHT22;1506;48.932;9.478;2024-02-21T13:36:27;13.90;1.00
2993;DHT22;1506;48.932;9.478;2024-02-21T13:38:54;14.00;1.00
2993;DHT22;1506;48.932;9.478;2024-02-21T13:41:21;14.30;1.00
2993;DHT22;1506;48.932;9.478;2024-02-21T13:43:49;14.50;1.00
2993;DHT22;1506;48.932;9.478;2024-02-21T13:46:16;14.50;1.00
2993;DHT22;1506;48.932;9.478;2024-02-21T13:48:43;14.50;1.00
2993;DHT22;1506;48.932;9.478;2024-02-21T13:51:10;14.60;1.00
2993;DHT22;1506;48.932;9.478;2024-02-21T13:53:38;14.70;1.00
2993;DHT22;1506;48.932;9.478;2024-02-21T13:56:05;14.70;1.00
2993;DHT22;1506;48.932;9.478;2024-02-21T13:58:33;14.80;1.00
2993;DHT22;1506;48.932;9.478;2024-02-21T14:01:00;14.80;1.00
2993;DHT22;1506;48.932;9.478;2024-02-21T14:03:27;14.90;1.00
2993;DHT22;1506;48.932;9.478;2024-02-21T14:05:54;14.90;1.00
2993;DHT22;1506;48.932;9.478;2024-02-21T14:08:22;14.90;1.00
2993;DHT22;1506;48.932;9.478;2024-02-21T14:10:51;14.90;1.00
2993;DHT22;1506;48.932;9.478;2024-02-21T14:13:18;14.70;1.00
2993;DHT22;1506;48.932;9.478;2024-02-21T14:15:45;14.60;1.00
2993;DHT22;1506;48.932;9.478;2024-02-21T14:18:13;14.60;1.00
2993;DHT22;1506;48.932;9.478;2024-02-21T14:20:40;14.30;1.00
2993;DHT22;1506;48.932;9.478;2024-02-21T14:23:07;13.80;1.00
2993;DHT22;1506;48.932;9.478;2024-02-21T14:25:35;13.50;1.00
2993;DHT22;1506;48.932;9.478;2024-02-21T14:28:02;13.60;1.00
2993;DHT22;1506;48.932;9.478;2024-02-21T14:30:29;13.80;1.00
2993;DHT22;1506;48.932;9.478;2024-02-21T14:32:56;13.80;1.00
2993;DHT22;1506;48.932;9.478;2024-02-21T14:35:24;13.80;1.00
2993;DHT22;1506;48.932;9.478;2024-02-21T14:37:51;14.00;1.00
2993;DHT22;1506;48.932;9.478;2024-02-21T14:40:19;13.80;1.00
2993;DHT22;1506;48.932;9.478;2024-02-21T14:42:47;13.90;1.00
2993;DHT22;1506;48.932;9.478;2024-02-21T14:45:14;14.30;1.00
2993;DHT22;1506;48.932;9.478;2024-02-21T14:47:41;14.10;1.00
2993;DHT22;1506;48.932;9.478;2024-02-21T14:50:09;14.20;1.00
2993;DHT22;1506;48.932;9.478;2024-02-21T14:52:36;14.30;1.00
2993;DHT22;1506;48.932;9.478;2024-02-21T14:55:04;14.30;1.00
2993;DHT22;1506;48.932;9.478;2024-02-21T14:57:32;13.90;1.00
2993;DHT22;1506;48.932;9.478;2024-02-21T14:59:59;13.40;1.00
2993;DHT22;1506;48.932;9.478;2024-02-21T15:02:29;13.20;1.00
2993;DHT22;1506;48.932;9.478;2024-02-21T15:04:56;12.90;1.00
2993;DHT22;1506;48.932;9.478;2024-02-21T15:07:24;12.70;1.00
2993;DHT22;1506;48.932;9.478;2024-02-21T15:09:52;12.60;1.00
2993;DHT22;1506;48.932;9.478;2024-02-21T15:12:19;12.50;1.00
2993;DHT22;1506;48.932;9.478;2024-02-21T15:14:46;12.90;1.00
2993;DHT22;1506;48.932;9.478;2024-02-21T15:17:14;12.70;1.00
2993;DHT22;1506;48.932;9.478;2024-02-21T15:19:41;12.50;1.00
2993;DHT22;1506;48.932;9.478;2024-02-21T15:22:11;12.60;1.00
2993;DHT22;1506;48.932;9.478;2024-02-21T15:24:38;12.30;1.00
2993;DHT22;1506;48.932;9.478;2024-02-21T15:27:09;12.50;1.00
2993;DHT22;1506;48.932;9.478;2024-02-21T15:29:36;12.70;1.00
2993;DHT22;1506;48.932;9.478;2024-02-21T15:32:06;12.80;1.00
2993;DHT22;1506;48.932;9.478;2024-02-21T15:34:33;12.90;1.00
2993;DHT22;1506;48.932;9.478;2024-02-21T15:37:00;13.00;1.00
2993;DHT22;1506;48.932;9.478;2024-02-21T15:39:27;12.90;1.00
2993;DHT22;1506;48.932;9.478;2024-02-21T15:41:54;12.80;1.00
2993;DHT22;1506;48.932;9.478;2024-02-21T15:44:23;12.70;1.00
2993;DHT22;1506;48.932;9.478;2024-02-21T15:46:51;12.60;1.00
2993;DHT22;1506;48.932;9.478;2024-02-21T15:49:20;12.50;1.00
2993;DHT22;1506;48.932;9.478;2024-02-21T15:51:48;12.40;1.00
2993;DHT22;1506;48.932;9.478;2024-02-21T15:54:16;12.40;1.00
2993;DHT22;1506;48.932;9.478;2024-02-21T15:56:50;12.30;1.00
2993;DHT22;1506;48.932;9.478;2024-02-21T15:59:18;12.20;1.00
2993;DHT22;1506;48.932;9.478;2024-02-21T16:01:45;12.10;1.00
2993;DHT22;1506;48.932;9.478;2024-02-21T16:04:12;12.10;1.00
2993;DHT22;1506;48.932;9.478;2024-02-21T16:06:42;12.00;1.00
2993;DHT22;1506;48.932;9.478;2024-02-21T16:09:10;12.00;1.00
2993;DHT22;1506;48.932;9.478;2024-02-21T16:11:37;12.00;1.00
2993;DHT22;1506;48.932;9.478;2024-02-21T16:14:09;11.90;1.00
2993;DHT22;1506;48.932;9.478;2024-02-21T16:16:36;11.90;1.00
2993;DHT22;1506;48.932;9.478;2024-02-21T16:19:06;11.80;1.00
2993;DHT22;1506;48.932;9.478;2024-02-21T16:21:33;11.80;1.00
2993;DHT22;1506;48.932;9.478;2024-02-21T16:24:02;11.80;1.00